createdAt,value
2023-09-09T00:01:51.075Z,21.01
2023-09-09T00:04:37.225Z,20.97
2023-09-09T00:07:23.584Z,20.95
2023-09-09T00:10:10.106Z,20.90
2023-09-09T00:12:58.961Z,20.90
2023-09-09T00:15:44.641Z,20.87
2023-09-09T00:18:30.520Z,20.87
2023-09-09T00:21:16.659Z,20.84
2023-09-09T00:24:03.120Z,20.80
2023-09-09T00:26:49.728Z,20.75
2023-09-09T00:29:36.126Z,20.76
2023-09-09T00:32:22.218Z,20.73
2023-09-09T00:35:08.405Z,20.71
2023-09-09T00:37:55.627Z,20.70
2023-09-09T00:40:44.795Z,20.65
2023-09-09T00:43:32.041Z,20.62
2023-09-09T00:46:18.972Z,20.59
2023-09-09T00:49:05.656Z,20.55
2023-09-09T00:51:51.710Z,20.51
2023-09-09T00:54:37.825Z,20.49
2023-09-09T00:57:24.297Z,20.47
2023-09-09T01:00:11.112Z,20.42
2023-09-09T01:02:57.850Z,20.35
2023-09-09T01:05:45.564Z,20.24
2023-09-09T01:08:33.123Z,20.16
2023-09-09T01:11:19.240Z,20.15
2023-09-09T01:14:05.519Z,20.11
2023-09-09T01:16:53.152Z,20.08
2023-09-09T01:19:39.563Z,20.09
2023-09-09T01:22:27.387Z,20.01
2023-09-09T01:25:13.791Z,20.04
2023-09-09T01:28:00.704Z,20.02
2023-09-09T01:30:47.028Z,20.00
2023-09-09T01:33:33.304Z,19.97
2023-09-09T01:36:19.612Z,19.94
2023-09-09T01:39:05.696Z,19.90
2023-09-09T01:41:52.329Z,19.85
2023-09-09T01:44:38.518Z,19.85
2023-09-09T01:47:24.895Z,19.84
2023-09-09T01:50:10.902Z,19.79
2023-09-09T01:52:57.269Z,19.78
2023-09-09T01:55:43.052Z,19.80
2023-09-09T01:58:29.358Z,19.80
2023-09-09T02:01:15.540Z,19.80
2023-09-09T02:04:01.679Z,19.76
2023-09-09T02:06:47.839Z,19.82
2023-09-09T02:09:35.085Z,19.81
2023-09-09T02:12:20.900Z,19.82
2023-09-09T02:15:08.189Z,19.82
2023-09-09T02:17:54.318Z,19.78
2023-09-09T02:20:40.954Z,19.76
2023-09-09T02:23:28.838Z,19.74
2023-09-09T02:26:15.096Z,19.71
2023-09-09T02:29:03.421Z,19.69
2023-09-09T02:31:49.228Z,19.62
2023-09-09T02:34:35.331Z,19.62
2023-09-09T02:37:22.672Z,19.62
2023-09-09T02:40:09.521Z,19.62
2023-09-09T02:42:55.549Z,19.59
2023-09-09T02:45:41.697Z,19.58
2023-09-09T02:48:27.890Z,19.55
2023-09-09T02:51:14.456Z,19.53
2023-09-09T02:54:00.348Z,19.51
2023-09-09T02:56:47.986Z,19.50
2023-09-09T02:59:34.992Z,19.50
2023-09-09T03:02:24.924Z,19.51
2023-09-09T03:05:11.200Z,19.47
2023-09-09T03:08:00.072Z,19.41
2023-09-09T03:10:47.355Z,19.38
2023-09-09T03:13:33.558Z,19.42
2023-09-09T03:16:20.026Z,19.40
2023-09-09T03:19:06.607Z,19.36
2023-09-09T03:21:53.196Z,19.34
2023-09-09T03:24:39.110Z,19.28
2023-09-09T03:27:26.348Z,19.22
2023-09-09T03:30:12.946Z,19.16
2023-09-09T03:33:00.479Z,19.11
2023-09-09T03:35:46.570Z,19.09
2023-09-09T03:38:32.813Z,19.07
2023-09-09T03:41:18.971Z,19.05
2023-09-09T03:44:05.529Z,19.02
2023-09-09T03:46:51.670Z,18.99
2023-09-09T03:49:37.475Z,18.98
2023-09-09T03:52:24.030Z,18.98
2023-09-09T03:55:09.907Z,18.98
2023-09-09T03:57:56.161Z,18.98
2023-09-09T04:00:42.134Z,18.99
2023-09-09T04:03:29.641Z,18.96
2023-09-09T04:06:18.264Z,18.96
2023-09-09T04:09:04.171Z,18.94
2023-09-09T04:11:50.560Z,18.95
2023-09-09T04:14:39.462Z,18.97
2023-09-09T04:17:25.719Z,18.99
2023-09-09T04:20:12.484Z,18.96
2023-09-09T04:23:00.013Z,18.92
2023-09-09T04:25:46.377Z,18.89
2023-09-09T04:28:33.211Z,18.87
2023-09-09T04:31:19.543Z,18.88
2023-09-09T04:34:06.093Z,18.88
2023-09-09T04:36:52.108Z,18.89
2023-09-09T04:39:39.396Z,18.90
2023-09-09T04:42:25.587Z,18.90
2023-09-09T04:45:11.907Z,18.86
2023-09-09T04:48:00.621Z,18.84
2023-09-09T04:50:48.669Z,18.80
2023-09-09T04:53:35.129Z,18.76
2023-09-09T04:56:22.476Z,18.76
2023-09-09T04:59:09.198Z,18.77
2023-09-09T05:01:55.385Z,18.78
2023-09-09T05:04:41.979Z,18.77
2023-09-09T05:07:32.533Z,18.76
2023-09-09T05:10:20.212Z,18.79
2023-09-09T05:13:07.740Z,18.83
2023-09-09T05:15:53.586Z,18.87
2023-09-09T05:18:40.874Z,18.90
2023-09-09T05:21:27.851Z,18.97
2023-09-09T05:24:13.760Z,18.98
2023-09-09T05:26:59.584Z,19.00
2023-09-09T05:29:45.789Z,19.02
2023-09-09T05:32:32.022Z,19.04
2023-09-09T05:35:18.195Z,19.05
2023-09-09T05:38:04.551Z,19.07
2023-09-09T05:40:50.693Z,19.10
2023-09-09T05:43:36.881Z,19.08
2023-09-09T05:46:23.346Z,19.11
2023-09-09T05:49:09.482Z,19.13
2023-09-09T05:51:55.371Z,19.15
2023-09-09T05:54:41.306Z,19.19
2023-09-09T05:57:28.089Z,19.25
2023-09-09T06:00:14.049Z,19.25
2023-09-09T06:03:03.706Z,19.36
2023-09-09T06:05:49.669Z,19.37
2023-09-09T06:08:36.030Z,19.45
2023-09-09T06:11:22.352Z,19.50
2023-09-09T06:14:08.156Z,19.47
2023-09-09T06:16:54.338Z,19.62
2023-09-09T06:19:40.334Z,19.66
2023-09-09T06:22:26.732Z,19.71
2023-09-09T06:25:14.615Z,19.75
2023-09-09T06:28:00.406Z,19.80
2023-09-09T06:30:46.530Z,19.86
2023-09-09T06:33:32.344Z,19.90
2023-09-09T06:36:21.363Z,19.92
2023-09-09T06:39:07.993Z,20.00
2023-09-09T06:41:53.846Z,20.03
2023-09-09T06:44:43.802Z,20.07
2023-09-09T06:47:29.698Z,20.12
2023-09-09T06:50:15.625Z,20.15
2023-09-09T06:53:01.768Z,20.17
2023-09-09T06:55:48.680Z,20.23
2023-09-09T06:58:34.561Z,20.25
2023-09-09T07:01:20.811Z,20.31
2023-09-09T07:04:07.538Z,20.37
2023-09-09T07:07:11.626Z,20.42
2023-09-09T07:09:58.824Z,20.50
2023-09-09T07:12:44.991Z,20.53
2023-09-09T07:15:31.088Z,20.58
2023-09-09T07:18:17.071Z,20.64
2023-09-09T07:21:03.917Z,20.69
2023-09-09T07:23:50.207Z,20.75
2023-09-09T07:26:37.897Z,20.80
2023-09-09T07:29:23.908Z,20.83
2023-09-09T07:32:10.053Z,20.85
2023-09-09T07:34:55.865Z,20.92
2023-09-09T07:37:41.991Z,20.98
2023-09-09T07:40:27.836Z,21.03
2023-09-09T07:43:16.226Z,21.11
2023-09-09T07:46:03.612Z,21.20
2023-09-09T07:48:49.304Z,21.27
2023-09-09T07:51:35.061Z,21.35
2023-09-09T07:54:21.591Z,21.43
2023-09-09T07:57:07.661Z,21.49
2023-09-09T07:59:53.523Z,21.55
2023-09-09T08:02:39.515Z,21.63
2023-09-09T08:05:25.774Z,21.70
2023-09-09T08:08:12.274Z,21.78
2023-09-09T08:10:58.316Z,21.85
2023-09-09T08:13:44.093Z,21.92
2023-09-09T08:16:33.781Z,21.96
2023-09-09T08:19:20.265Z,22.04
2023-09-09T08:22:06.533Z,22.12
2023-09-09T08:24:52.845Z,22.19
2023-09-09T08:27:40.479Z,22.29
2023-09-09T08:30:26.857Z,22.40
2023-09-09T08:33:13.197Z,22.49
2023-09-09T08:36:06.480Z,22.60
2023-09-09T08:38:58.052Z,22.68
2023-09-09T08:42:08.421Z,22.74
2023-09-09T08:45:20.796Z,22.83
2023-09-09T08:48:10.630Z,22.91
2023-09-09T08:51:00.616Z,23.02
2023-09-09T08:53:47.931Z,23.10
2023-09-09T08:56:34.203Z,23.17
2023-09-09T08:59:21.024Z,23.25
2023-09-09T09:02:30.388Z,23.34
2023-09-09T09:05:18.451Z,23.45
2023-09-09T09:08:06.989Z,23.54
2023-09-09T09:11:03.010Z,23.62
2023-09-09T09:13:56.219Z,23.72
2023-09-09T09:16:43.383Z,23.82
2023-09-09T09:19:37.448Z,23.95
2023-09-09T09:22:24.034Z,24.07
2023-09-09T09:25:31.273Z,24.11
2023-09-09T09:28:17.851Z,24.25
2023-09-09T09:31:20.270Z,24.33
2023-09-09T09:34:06.380Z,24.46
2023-09-09T09:36:53.959Z,24.56
2023-09-09T09:39:41.579Z,24.64
2023-09-09T09:42:30.051Z,24.68
2023-09-09T09:45:16.949Z,24.72
2023-09-09T09:48:03.405Z,24.78
2023-09-09T09:50:53.237Z,24.84
2023-09-09T09:53:53.481Z,24.92
2023-09-09T09:56:40.386Z,25.00
2023-09-09T09:59:36.344Z,25.05
2023-09-09T10:02:25.861Z,25.10
2023-09-09T10:05:15.384Z,25.14
2023-09-09T10:08:04.454Z,25.21
2023-09-09T10:11:16.447Z,25.24
2023-09-09T10:14:09.738Z,25.33
2023-09-09T10:16:58.380Z,25.39
2023-09-09T10:19:45.015Z,25.45
2023-09-09T10:22:32.954Z,25.54
2023-09-09T10:25:18.985Z,25.61
2023-09-09T10:28:07.437Z,25.67
2023-09-09T10:30:57.212Z,25.74
2023-09-09T10:34:00.678Z,25.84
2023-09-09T10:37:01.202Z,25.91
2023-09-09T10:39:56.522Z,26.06
2023-09-09T10:43:03.473Z,26.16
2023-09-09T10:45:55.752Z,26.30
2023-09-09T10:48:46.724Z,26.46
2023-09-09T10:51:51.984Z,26.56
2023-09-09T10:54:38.246Z,26.67
2023-09-09T10:57:35.378Z,26.82
2023-09-09T11:00:45.162Z,27.02
2023-09-09T11:03:50.021Z,27.22
2023-09-09T11:06:35.813Z,27.40
2023-09-09T11:09:31.309Z,27.55
2023-09-09T11:12:17.977Z,27.70
2023-09-09T11:15:12.843Z,27.89
2023-09-09T11:18:00.465Z,28.03
2023-09-09T11:20:46.711Z,28.22
2023-09-09T11:23:33.568Z,28.40
2023-09-09T11:26:20.076Z,28.59
2023-09-09T11:29:25.532Z,28.80
2023-09-09T11:32:31.056Z,29.08
2023-09-09T11:35:17.656Z,29.37
2023-09-09T11:38:09.813Z,29.69
2023-09-09T11:40:57.088Z,30.08
2023-09-09T11:44:08.182Z,30.49
2023-09-09T11:46:55.196Z,30.95
2023-09-09T11:49:49.880Z,31.39
2023-09-09T11:52:36.454Z,31.90
2023-09-09T11:55:41.664Z,32.44
2023-09-09T11:58:41.632Z,32.95
2023-09-09T12:01:28.733Z,33.37
2023-09-09T12:04:15.522Z,33.72
2023-09-09T12:07:02.065Z,34.08
2023-09-09T12:09:48.545Z,34.43
2023-09-09T12:12:35.477Z,34.94
2023-09-09T12:15:21.677Z,35.45
2023-09-09T12:18:14.794Z,36.03
2023-09-09T12:21:09.292Z,36.67
2023-09-09T12:24:01.624Z,37.38
2023-09-09T12:26:52.642Z,38.10
2023-09-09T12:29:49.997Z,38.94
2023-09-09T12:32:35.950Z,39.47
2023-09-09T12:35:22.156Z,40.09
2023-09-09T12:38:08.431Z,40.77
2023-09-09T12:41:00.432Z,41.29
2023-09-09T12:43:47.978Z,41.77
2023-09-09T12:46:34.303Z,42.32
2023-09-09T12:49:20.774Z,42.87
2023-09-09T12:52:07.361Z,43.32
2023-09-09T12:54:53.602Z,43.64
2023-09-09T12:57:39.908Z,43.87
2023-09-09T13:00:26.058Z,43.99
2023-09-09T13:03:14.514Z,44.12
2023-09-09T13:06:00.951Z,44.11
2023-09-09T13:08:46.838Z,44.03
2023-09-09T13:11:33.078Z,43.97
2023-09-09T13:14:26.649Z,44.03
2023-09-09T13:17:13.040Z,44.01
2023-09-09T13:20:00.075Z,44.18
2023-09-09T13:22:51.662Z,44.42
2023-09-09T13:25:38.098Z,44.73
2023-09-09T13:28:25.158Z,45.04
2023-09-09T13:31:11.188Z,45.20
2023-09-09T13:33:58.333Z,45.40
2023-09-09T13:36:44.492Z,45.47
2023-09-09T13:39:30.666Z,45.54
2023-09-09T13:42:16.897Z,45.62
2023-09-09T13:47:52.935Z,45.46
2023-09-09T13:50:42.203Z,45.40
2023-09-09T13:53:28.275Z,45.23
2023-09-09T13:56:14.465Z,45.01
2023-09-09T13:59:00.437Z,44.85
2023-09-09T14:02:31.682Z,44.61
2023-09-09T14:05:17.553Z,44.30
2023-09-09T14:08:04.178Z,44.05
2023-09-09T14:10:49.912Z,43.75
2023-09-09T14:13:37.533Z,43.52
2023-09-09T14:16:23.694Z,43.29
2023-09-09T14:19:09.622Z,43.09
2023-09-09T14:21:55.434Z,42.92
2023-09-09T14:24:41.781Z,42.77
2023-09-09T14:27:28.131Z,42.59
2023-09-09T14:30:14.880Z,42.46
2023-09-09T14:33:03.555Z,42.30
2023-09-09T14:35:49.685Z,42.06
2023-09-09T14:38:35.945Z,41.83
2023-09-09T14:41:22.423Z,41.56
2023-09-09T14:44:08.480Z,41.15
2023-09-09T14:46:54.583Z,40.50
2023-09-09T14:49:42.660Z,39.62
2023-09-09T14:52:29.073Z,38.71
2023-09-09T14:55:15.917Z,37.78
2023-09-09T14:58:02.296Z,36.89
2023-09-09T15:00:48.075Z,35.98
2023-09-09T15:03:34.200Z,35.21
2023-09-09T15:06:20.231Z,34.49
2023-09-09T15:09:06.342Z,33.87
2023-09-09T15:11:52.907Z,33.42
2023-09-09T15:14:39.229Z,33.06
2023-09-09T15:17:25.711Z,32.80
2023-09-09T15:20:12.481Z,32.65
2023-09-09T15:22:58.393Z,32.54
2023-09-09T15:25:44.630Z,32.46
2023-09-09T15:28:30.669Z,32.32
2023-09-09T15:31:18.483Z,32.27
2023-09-09T15:34:04.639Z,32.24
2023-09-09T15:36:50.812Z,32.22
2023-09-09T15:39:36.817Z,32.23
2023-09-09T15:43:30.347Z,32.12
2023-09-09T15:46:16.571Z,31.94
2023-09-09T15:50:18.068Z,31.62
2023-09-09T15:53:04.916Z,31.21
2023-09-09T15:55:52.720Z,30.96
2023-09-09T15:58:59.639Z,30.75
2023-09-09T16:01:53.954Z,30.51
2023-09-09T16:05:00.541Z,30.25
2023-09-09T16:08:27.699Z,30.01
2023-09-09T16:11:15.741Z,29.76
2023-09-09T16:14:01.790Z,29.53
2023-09-09T16:16:54.162Z,29.40
2023-09-09T16:23:48.809Z,28.94
2023-09-09T16:26:54.574Z,28.76
2023-09-09T16:30:03.413Z,28.56
2023-09-09T16:34:02.641Z,28.40
2023-09-09T16:37:07.936Z,28.22
2023-09-09T16:40:05.670Z,28.09
2023-09-09T16:42:56.749Z,28.01
2023-09-09T16:49:57.139Z,27.76
2023-09-09T16:52:43.226Z,27.67
2023-09-09T16:55:29.781Z,27.57
2023-09-09T16:58:15.835Z,27.47
2023-09-09T17:01:02.108Z,27.42
2023-09-09T17:03:48.516Z,27.35
2023-09-09T17:06:34.611Z,27.27
2023-09-09T17:09:22.662Z,27.23
2023-09-09T17:12:10.357Z,27.16
2023-09-09T17:14:57.069Z,27.03
2023-09-09T17:17:43.024Z,26.94
2023-09-09T17:20:29.584Z,26.90
2023-09-09T17:23:15.755Z,26.80
2023-09-09T17:26:02.892Z,26.73
2023-09-09T17:28:48.793Z,26.69
2023-09-09T17:31:35.065Z,26.66
2023-09-09T17:34:21.543Z,26.64
2023-09-09T17:37:07.769Z,26.60
2023-09-09T17:39:53.845Z,26.56
2023-09-09T17:42:40.032Z,26.52
2023-09-09T17:45:26.099Z,26.50
2023-09-09T17:48:12.122Z,26.43
2023-09-09T17:50:58.039Z,26.40
2023-09-09T17:53:43.772Z,26.37
2023-09-09T17:56:31.214Z,26.30
2023-09-09T17:59:19.479Z,26.25
2023-09-09T18:02:12.493Z,26.20
2023-09-09T18:04:58.478Z,26.13
2023-09-09T18:07:44.545Z,26.07
2023-09-09T18:10:30.774Z,26.00
2023-09-09T18:13:16.634Z,25.94
2023-09-09T18:16:02.738Z,25.89
2023-09-09T18:18:48.672Z,25.83
2023-09-09T18:21:34.630Z,25.79
2023-09-09T18:24:20.534Z,25.70
2023-09-09T18:27:06.800Z,25.63
2023-09-09T18:29:53.034Z,25.53
2023-09-09T18:32:41.538Z,25.45
2023-09-09T18:35:28.015Z,25.39
2023-09-09T18:38:14.245Z,25.34
2023-09-09T18:41:03.349Z,25.29
2023-09-09T18:43:51.002Z,25.26
2023-09-09T18:46:36.997Z,25.26
2023-09-09T18:49:23.578Z,25.25
2023-09-09T18:52:09.434Z,25.18
2023-09-09T18:54:55.319Z,25.16
2023-09-09T18:57:41.108Z,25.14
2023-09-09T19:00:30.001Z,25.12
2023-09-09T19:03:18.491Z,25.08
2023-09-09T19:06:07.423Z,25.00
2023-09-09T19:08:53.361Z,24.90
2023-09-09T19:11:40.655Z,24.84
2023-09-09T19:14:28.004Z,24.78
2023-09-09T19:17:19.732Z,24.78
2023-09-09T19:20:11.374Z,24.73
2023-09-09T19:23:01.599Z,24.63
2023-09-09T19:26:01.891Z,24.50
2023-09-09T19:28:49.558Z,24.40
2023-09-09T19:31:36.726Z,24.34
2023-09-09T19:34:39.054Z,24.29
2023-09-09T19:37:35.830Z,24.19
2023-09-09T19:40:25.245Z,24.17
2023-09-09T19:43:15.705Z,24.17
2023-09-09T19:46:02.766Z,24.13
2023-09-09T19:48:49.189Z,24.12
2023-09-09T19:51:35.302Z,24.13
2023-09-09T19:54:21.931Z,24.12
2023-09-09T19:57:08.319Z,24.14
2023-09-09T19:59:54.126Z,24.10
2023-09-09T20:02:40.635Z,24.09
2023-09-09T20:05:26.932Z,24.06
2023-09-09T20:08:13.197Z,24.09
2023-09-09T20:11:04.533Z,24.04
2023-09-09T20:13:51.026Z,24.03
2023-09-09T20:16:36.901Z,24.01
2023-09-09T20:19:23.403Z,23.98
2023-09-09T20:22:09.458Z,23.97
2023-09-09T20:24:55.623Z,23.96
2023-09-09T20:27:44.401Z,23.95
2023-09-09T20:30:32.011Z,23.92
2023-09-09T20:33:18.861Z,23.93
2023-09-09T20:36:05.979Z,23.88
2023-09-09T20:38:52.658Z,23.86
2023-09-09T20:41:38.979Z,23.80
2023-09-09T20:44:25.097Z,23.79
2023-09-09T20:47:14.202Z,23.72
2023-09-09T20:50:00.362Z,23.67
2023-09-09T20:52:48.882Z,23.60
2023-09-09T20:55:34.894Z,23.55
2023-09-09T20:58:21.276Z,23.49
2023-09-09T21:01:07.285Z,23.43
2023-09-09T21:03:53.680Z,23.40
2023-09-09T21:06:39.820Z,23.34
2023-09-09T21:09:25.714Z,23.28
2023-09-09T21:12:11.480Z,23.21
2023-09-09T21:14:57.433Z,23.18
2023-09-09T21:17:44.567Z,23.17
2023-09-09T21:20:30.503Z,23.13
2023-09-09T21:23:16.789Z,23.11
2023-09-09T21:26:03.285Z,23.08
2023-09-09T21:28:49.406Z,23.04
2023-09-09T21:31:35.698Z,22.99
2023-09-09T21:34:21.966Z,22.90
2023-09-09T21:37:08.019Z,22.86
2023-09-09T21:39:53.952Z,22.82
2023-09-09T21:42:40.027Z,22.76
2023-09-09T21:45:25.955Z,22.74
2023-09-09T21:48:12.068Z,22.68
2023-09-09T21:50:58.160Z,22.62
2023-09-09T21:53:44.144Z,22.59
2023-09-09T21:56:30.178Z,22.50
2023-09-09T21:59:18.024Z,22.51
2023-09-09T22:02:04.495Z,22.46
2023-09-09T22:04:50.625Z,22.46
2023-09-09T22:07:37.516Z,22.42
2023-09-09T22:10:23.427Z,22.37
2023-09-09T22:13:09.266Z,22.32
2023-09-09T22:15:55.631Z,22.21
2023-09-09T22:18:41.987Z,22.17
2023-09-09T22:21:27.872Z,22.07
2023-09-09T22:24:13.552Z,21.97
2023-09-09T22:27:00.736Z,21.88
2023-09-09T22:29:46.589Z,21.78
2023-09-09T22:32:34.724Z,21.68
2023-09-09T22:35:29.193Z,21.61
2023-09-09T22:38:14.978Z,21.58
2023-09-09T22:41:00.998Z,21.51
2023-09-09T22:43:47.104Z,21.48
2023-09-09T22:46:33.498Z,21.45
2023-09-09T22:49:19.781Z,21.39
2023-09-09T22:52:06.268Z,21.38
2023-09-09T22:54:53.606Z,21.38
2023-09-09T22:57:39.809Z,21.36
2023-09-09T23:00:25.737Z,21.35
2023-09-09T23:03:11.772Z,21.32
2023-09-09T23:06:08.113Z,21.32
2023-09-09T23:08:55.354Z,21.27
2023-09-09T23:11:46.195Z,21.20
2023-09-09T23:14:33.713Z,21.16
2023-09-09T23:17:21.879Z,21.11
2023-09-09T23:20:24.350Z,21.05
2023-09-09T23:23:12.805Z,21.03
2023-09-09T23:26:01.235Z,20.98
2023-09-09T23:28:49.847Z,20.91
2023-09-09T23:31:42.724Z,20.85
2023-09-09T23:34:34.271Z,20.81
2023-09-09T23:37:29.361Z,20.76
2023-09-09T23:40:23.152Z,20.71
2023-09-09T23:43:08.992Z,20.69
2023-09-09T23:45:56.088Z,20.63
2023-09-09T23:48:42.197Z,20.58
2023-09-09T23:51:28.341Z,20.49
2023-09-09T23:54:14.392Z,20.48
2023-09-09T23:57:00.500Z,20.43
2023-09-09T23:59:46.446Z,20.37
